Time;durP1;ratioP1;P1;durP2;ratioP2;P2;SDS_P1;SDS_P2;PMS_P1;PMS_P2;Temp;Humidity;BMP_temperature;BMP_pressure;BME280_temperature;BME280_humidity;BME280_pressure;Samples;Min_cycle;Max_cycle;Signal;HPM_P1;HPM_P2
2023/08/25 00:02:28;;;;;;;9.15;5.50;;;;;;;18.87;100.00;100196.56;4842159;29;20053;-75
2023/08/25 00:05:38;;;;;;;13.05;5.97;;;;;;;18.96;100.00;100200.19;4840574;29;20092;-76
2023/08/25 00:08:43;;;;;;;11.15;6.43;;;;;;;18.97;100.00;100201.88;4842318;29;20110;-75
2023/08/25 00:11:46;;;;;;;6.28;5.30;;;;;;;18.99;100.00;100194.63;4842202;29;20045;-75
2023/08/25 00:14:50;;;;;;;10.18;5.40;;;;;;;18.92;100.00;100177.59;4842289;29;20105;-74
2023/08/25 00:17:53;;;;;;;7.85;5.57;;;;;;;18.83;100.00;100186.41;4842095;29;20560;-75
2023/08/25 00:20:57;;;;;;;7.20;5.38;;;;;;;18.84;100.00;100182.78;4842245;29;20437;-75
2023/08/25 00:24:00;;;;;;;5.15;4.65;;;;;;;18.75;100.00;100182.66;4841975;29;20543;-75
2023/08/25 00:27:03;;;;;;;7.82;4.38;;;;;;;18.70;100.00;100179.56;4841928;29;20053;-75
2023/08/25 00:30:10;;;;;;;7.22;4.43;;;;;;;18.63;100.00;100178.44;4841941;29;20528;-75
2023/08/25 00:33:13;;;;;;;9.20;4.75;;;;;;;18.66;100.00;100164.09;4841905;29;20060;-75
2023/08/25 00:36:18;;;;;;;9.00;4.85;;;;;;;18.71;100.00;100159.22;4841113;29;20117;-75
2023/08/25 00:39:21;;;;;;;6.90;4.50;;;;;;;18.75;100.00;100164.09;4840969;29;20053;-74
2023/08/25 00:42:24;;;;;;;6.28;4.60;;;;;;;18.67;100.00;100169.25;4841787;29;20049;-75
2023/08/25 00:45:28;;;;;;;7.78;4.95;;;;;;;18.58;100.00;100156.84;4851694;29;20088;-75
2023/08/25 00:48:31;;;;;;;8.23;4.72;;;;;;;18.52;100.00;100162.72;4841778;29;20184;-78
2023/08/25 00:51:35;;;;;;;8.82;5.80;;;;;;;18.43;100.00;100158.25;4840942;29;20068;-76
2023/08/25 00:54:39;;;;;;;8.40;5.03;;;;;;;18.39;100.00;100156.88;4841722;29;20041;-77
2023/08/25 00:57:43;;;;;;;7.20;4.85;;;;;;;18.39;100.00;100140.97;4841695;29;20053;-75
2023/08/25 01:00:47;;;;;;;7.82;3.72;;;;;;;18.38;100.00;100131.34;4840552;29;20589;-78
2023/08/25 01:03:52;;;;;;;6.10;3.97;;;;;;;18.49;100.00;100117.97;4841673;29;20084;-74
2023/08/25 01:06:55;;;;;;;6.43;3.90;;;;;;;18.27;100.00;100114.66;4841854;29;20061;-74
2023/08/25 01:09:59;;;;;;;8.90;4.45;;;;;;;18.27;100.00;100109.34;4841625;29;20041;-75
2023/08/25 01:13:10;;;;;;;9.00;5.03;;;;;;;18.34;100.00;100107.81;4840973;29;20473;-79
2023/08/25 01:16:17;;;;;;;9.73;5.00;;;;;;;18.33;100.00;100110.59;4840732;29;20061;-75
2023/08/25 01:19:35;;;;;;;13.40;6.50;;;;;;;18.26;100.00;100107.69;4844225;29;20565;-74
2023/08/25 01:23:14;;;;;;;19.25;6.32;;;;;;;18.17;100.00;100100.59;4844872;29;20114;-75
2023/08/25 01:26:18;;;;;;;8.10;6.10;;;;;;;18.11;100.00;100103.78;4843935;29;20084;-75
2023/08/25 01:29:22;;;;;;;9.57;5.45;;;;;;;18.06;100.00;100106.84;4854579;29;20068;-75
2023/08/25 01:32:25;;;;;;;12.50;5.60;;;;;;;18.06;100.00;100113.94;4844658;29;20056;-75
2023/08/25 01:35:53;;;;;;;9.25;5.95;;;;;;;18.01;100.00;100109.06;4844574;29;20568;-75
2023/08/25 01:39:08;;;;;;;9.55;6.30;;;;;;;18.07;100.00;100118.28;4844522;29;20530;-76
2023/08/25 01:42:14;;;;;;;7.28;6.03;;;;;;;18.03;100.00;100119.53;4843681;29;20062;-75
2023/08/25 01:45:19;;;;;;;9.93;7.03;;;;;;;18.00;100.00;100112.69;4844477;29;20049;-74
2023/08/25 01:48:24;;;;;;;10.57;5.93;;;;;;;18.02;100.00;100104.59;4843663;29;20048;-74
2023/08/25 01:51:28;;;;;;;6.75;5.28;;;;;;;18.02;100.00;100099.31;4844425;29;20044;-74
2023/08/25 01:54:33;;;;;;;9.50;4.40;;;;;;;17.99;100.00;100094.31;4843506;29;20053;-74
2023/08/25 01:57:36;;;;;;;9.52;4.38;;;;;;;17.97;100.00;100096.28;4844453;29;20109;-74
2023/08/25 02:00:40;;;;;;;9.27;3.58;;;;;;;17.96;100.00;100094.56;4842931;29;20068;-74
2023/08/25 02:03:43;;;;;;;13.02;4.82;;;;;;;17.92;100.00;100087.91;4844089;29;20520;-74
2023/08/25 02:06:46;;;;;;;11.75;6.22;;;;;;;17.94;100.00;100083.31;4843235;29;20110;-74
2023/08/25 02:09:53;;;;;;;17.75;7.35;;;;;;;17.85;100.00;100077.03;4844276;29;20053;-75
2023/08/25 02:12:56;;;;;;;8.82;5.22;;;;;;;17.85;100.00;100077.88;4843447;29;20484;-74
2023/08/25 02:16:00;;;;;;;11.00;5.40;;;;;;;17.79;100.00;100067.84;4843981;29;20151;-74
2023/08/25 02:19:03;;;;;;;6.80;4.15;;;;;;;17.78;100.00;100057.41;4843172;29;20101;-74
2023/08/25 02:22:07;;;;;;;6.60;4.38;;;;;;;17.77;100.00;100064.53;4843008;29;20515;-74
2023/08/25 02:25:11;;;;;;;9.77;4.38;;;;;;;17.73;100.00;100071.00;4843135;29;20094;-74
2023/08/25 02:28:14;;;;;;;7.90;5.95;;;;;;;17.72;100.00;100066.69;4842978;29;20130;-74
2023/08/25 02:31:18;;;;;;;9.50;6.10;;;;;;;17.80;100.00;100058.94;4843669;29;20049;-74
2023/08/25 02:34:23;;;;;;;11.40;6.22;;;;;;;17.73;100.00;100073.66;4843601;29;20117;-75
2023/08/25 02:37:26;;;;;;;13.68;6.63;;;;;;;17.79;100.00;100069.66;4842842;29;20069;-74
2023/08/25 02:40:30;;;;;;;8.23;6.25;;;;;;;17.70;100.00;100063.34;4843419;29;20122;-74
2023/08/25 02:43:33;;;;;;;7.30;5.53;;;;;;;17.70;100.00;100079.22;4843478;29;20465;-74
2023/08/25 02:46:37;;;;;;;9.35;6.00;;;;;;;17.69;100.00;100051.09;4842813;29;20470;-73
2023/08/25 02:49:41;;;;;;;9.88;6.68;;;;;;;17.65;100.00;100053.19;4842553;29;20049;-73
2023/08/25 02:52:44;;;;;;;10.10;6.50;;;;;;;17.72;100.00;100050.84;4842482;29;20102;-74
2023/08/25 02:55:47;;;;;;;11.32;6.35;;;;;;;17.80;100.00;100043.06;4842400;29;20568;-74
2023/08/25 02:58:51;;;;;;;9.65;5.78;;;;;;;17.79;100.00;100046.69;4852306;29;20053;-74
2023/08/25 03:01:54;;;;;;;11.60;6.18;;;;;;;17.72;100.00;100047.34;4842228;29;20060;-74
2023/08/25 03:04:57;;;;;;;7.88;5.97;;;;;;;17.63;100.00;100051.66;4852967;29;20057;-74
2023/08/25 03:08:02;;;;;;;9.15;6.05;;;;;;;17.63;100.00;100051.66;4842246;29;20083;-74
2023/08/25 03:11:05;;;;;;;9.15;6.60;;;;;;;17.69;100.00;100050.28;4842356;29;20405;-74
2023/08/25 03:14:09;;;;;;;13.25;6.90;;;;;;;17.78;100.00;100047.66;4842120;29;20056;-73
2023/08/25 03:17:13;;;;;;;13.27;6.57;;;;;;;17.72;100.00;100044.72;4842056;29;20099;-74
2023/08/25 03:20:16;;;;;;;8.80;6.35;;;;;;;17.70;100.00;100031.63;4841917;29;20053;-75
2023/08/25 03:23:20;;;;;;;8.48;6.95;;;;;;;17.63;100.00;100043.72;4841953;29;20049;-75
2023/08/25 03:26:24;;;;;;;9.52;6.18;;;;;;;17.73;100.00;100031.34;4841827;29;20486;-75
2023/08/25 03:29:28;;;;;;;12.48;6.38;;;;;;;17.71;100.00;100028.03;4852464;29;20143;-74
2023/08/25 03:32:31;;;;;;;12.75;5.80;;;;;;;17.61;100.00;100030.66;4842640;29;20489;-74
2023/08/25 03:35:38;;;;;;;9.00;6.10;;;;;;;17.57;100.00;100025.75;4842591;29;20053;-75
2023/08/25 03:38:41;;;;;;;9.77;6.20;;;;;;;17.62;100.00;100023.56;4842472;29;20121;-75
2023/08/25 03:41:48;;;;;;;8.35;5.80;;;;;;;17.69;100.00;100021.19;4840994;29;20480;-75
2023/08/25 03:44:52;;;;;;;10.05;5.85;;;;;;;17.57;100.00;100016.00;4841696;29;20049;-75
2023/08/25 03:47:56;;;;;;;12.13;4.82;;;;;;;17.52;100.00;100012.97;4841564;29;20056;-75
2023/08/25 03:50:59;;;;;;;14.52;5.63;;;;;;;17.40;100.00;100009.59;4841606;29;20041;-74
2023/08/25 03:54:02;;;;;;;12.38;5.47;;;;;;;17.38;100.00;100005.41;4841741;29;20065;-75
2023/08/25 03:57:08;;;;;;;12.77;5.65;;;;;;;17.32;100.00;99990.94;4842295;29;20919;-75
2023/08/25 04:00:12;;;;;;;5.55;5.05;;;;;;;17.33;100.00;99968.84;4841154;29;20057;-75
2023/08/25 04:03:17;;;;;;;8.07;5.10;;;;;;;17.33;100.00;99965.38;4842202;29;20124;-75
2023/08/25 04:06:20;;;;;;;9.60;6.32;;;;;;;17.30;100.00;99961.19;4842150;29;20160;-75
2023/08/25 04:09:24;;;;;;;8.73;5.40;;;;;;;17.34;100.00;99961.75;4841363;29;20462;-75
2023/08/25 04:12:33;;;;;;;11.55;5.18;;;;;;;17.39;100.00;99970.13;4841154;29;20053;-75
2023/08/25 04:15:37;;;;;;;14.35;4.55;;;;;;;17.48;100.00;99957.84;4841289;29;20080;-76
2023/08/25 04:18:40;;;;;;;13.45;4.40;;;;;;;17.53;100.00;99956.47;4841083;29;20052;-76
2023/08/25 04:21:43;;;;;;;6.72;4.72;;;;;;;17.54;100.00;99965.22;4842042;29;20428;-76
2023/08/25 04:24:49;;;;;;;9.88;5.03;;;;;;;17.49;100.00;99965.66;4841115;29;20080;-76
2023/08/25 04:27:52;;;;;;;5.10;4.30;;;;;;;17.41;100.00;99952.28;4841420;29;20576;-76
2023/08/25 04:30:55;;;;;;;7.85;4.80;;;;;;;17.38;100.00;99969.25;4840848;29;20061;-76
2023/08/25 04:34:05;;;;;;;7.13;4.53;;;;;;;17.33;100.00;99968.84;4839129;29;20492;-75
2023/08/25 04:37:09;;;;;;;6.95;4.70;;;;;;;17.32;100.00;99974.25;4850260;29;20129;-75
2023/08/25 04:40:20;;;;;;;6.72;4.07;;;;;;;17.28;100.00;99984.25;4839354;29;20413;-75
2023/08/25 04:43:22;;;;;;;4.55;4.10;;;;;;;17.33;100.00;99992.63;4850228;29;20081;-75
2023/08/25 04:46:28;;;;;;;4.53;3.55;;;;;;;17.33;100.00;99992.63;4839174;29;20431;-75
2023/08/25 04:49:34;;;;;;;2.90;2.60;;;;;;;17.47;100.00;99978.16;4839932;29;20045;-75
2023/08/25 04:52:37;;;;;;;5.72;3.03;;;;;;;17.50;100.00;99961.22;4841005;29;20068;-75
2023/08/25 04:55:44;;;;;;;5.43;2.70;;;;;;;17.42;100.00;99962.75;4843299;29;20085;-75
2023/08/25 04:58:47;;;;;;;3.88;3.30;;;;;;;17.46;100.00;99949.25;4843643;29;20053;-75
2023/08/25 05:01:51;;;;;;;5.60;3.17;;;;;;;17.57;100.00;99942.00;4853282;29;20508;-76
2023/08/25 05:04:54;;;;;;;3.40;2.80;;;;;;;17.53;100.00;99967.06;4842462;29;20117;-75
2023/08/25 05:08:00;;;;;;;3.55;2.97;;;;;;;17.51;100.00;99973.44;4842425;29;20110;-75
2023/08/25 05:11:18;;;;;;;4.65;2.30;;;;;;;17.44;100.00;99974.00;4841603;29;20568;-75
2023/08/25 05:14:23;;;;;;;3.60;2.40;;;;;;;17.44;100.00;99989.84;4841751;29;20138;-74
2023/08/25 05:17:27;;;;;;;4.00;2.60;;;;;;;17.42;100.00;100023.53;4842087;29;20098;-74
2023/08/25 05:25:43;;;;;;;3.28;2.20;;;;;;;17.57;100.00;100031.88;4822411;29;20057;-75
2023/08/25 05:28:45;;;;;;;2.92;1.85;;;;;;;17.63;100.00;100043.72;4833679;29;20118;-75
2023/08/25 05:31:52;;;;;;;3.80;2.10;;;;;;;17.63;100.00;100025.22;4843203;29;20523;-67
2023/08/25 05:35:06;;;;;;;2.90;2.10;;;;;;;17.61;100.00;99996.28;4844048;29;20424;-67
2023/08/25 05:38:12;;;;;;;3.40;2.17;;;;;;;17.57;100.00;99980.81;4843012;29;20045;-67
2023/08/25 05:41:16;;;;;;;6.82;2.40;;;;;;;17.49;100.00;99988.63;4843079;29;20053;-67
2023/08/25 05:44:20;;;;;;;2.40;1.50;;;;;;;17.61;100.00;99998.94;4840297;29;20057;-67
2023/08/25 05:47:23;;;;;;;4.05;1.67;;;;;;;17.66;100.00;99996.69;4841026;29;20084;-67
2023/08/25 05:50:26;;;;;;;2.85;2.03;;;;;;;17.64;100.00;100000.44;4840710;29;20123;-67
2023/08/25 05:53:29;;;;;;;4.50;1.92;;;;;;;17.58;100.00;100014.19;4841239;29;20056;-67
2023/08/25 05:56:33;;;;;;;3.13;2.15;;;;;;;17.57;100.00;100031.03;4840694;29;20114;-67
2023/08/25 05:59:36;;;;;;;3.28;2.10;;;;;;;17.58;100.00;100043.28;4842493;29;20084;-67
2023/08/25 06:03:04;;;;;;;2.75;1.70;;;;;;;17.65;100.00;100033.84;4843010;29;20109;-67
2023/08/25 06:06:08;;;;;;;2.30;1.50;;;;;;;17.80;100.00;100043.06;4841681;29;20068;-67
2023/08/25 06:09:12;;;;;;;5.55;1.83;;;;;;;17.90;100.00;100061.59;4840841;29;20133;-67
2023/08/25 06:12:15;;;;;;;2.80;1.90;;;;;;;17.84;100.00;100057.69;4841723;29;20056;-67
2023/08/25 06:15:19;;;;;;;7.18;1.80;;;;;;;17.81;100.00;100052.69;4841698;29;20057;-66
2023/08/25 06:18:22;;;;;;;3.60;1.90;;;;;;;17.73;100.00;100060.44;4842095;29;20141;-67
2023/08/25 06:21:25;;;;;;;2.90;1.67;;;;;;;17.80;100.00;100037.78;4842495;29;20056;-66
2023/08/25 06:24:29;;;;;;;2.92;1.83;;;;;;;17.88;100.00;100032.63;4842120;29;20048;-67
2023/08/25 06:27:32;;;;;;;5.47;1.83;;;;;;;17.87;100.00;100017.75;4842245;29;20523;-69
2023/08/25 06:30:38;;;;;;;3.45;1.42;;;;;;;18.01;100.00;100007.72;4841969;29;20135;-68
2023/08/25 06:33:44;;;;;;;3.30;1.65;;;;;;;17.99;100.00;99996.44;4842458;29;20102;-68
2023/08/25 06:36:47;;;;;;;4.63;2.20;;;;;;;17.96;100.00;100021.34;4842099;29;20510;-67
2023/08/25 06:39:50;;;;;;;6.18;1.55;;;;;;;18.01;100.00;100013.84;4842066;29;20088;-68
2023/08/25 06:42:54;;;;;;;3.10;1.70;;;;;;;18.10;100.00;100012.16;4842262;29;20092;-65
2023/08/25 06:45:58;;;;;;;4.00;1.50;;;;;;;18.17;100.00;100018.56;4841858;29;20144;-66
2023/08/25 06:49:02;;;;;;;3.50;1.90;;;;;;;18.25;100.00;100026.63;4840326;29;20148;-66
2023/08/25 06:52:06;;;;;;;5.93;2.03;;;;;;;18.21;100.00;100035.81;4840729;29;20529;-67
2023/08/25 06:55:09;;;;;;;3.10;2.00;;;;;;;18.18;100.00;100033.44;4840805;29;20049;-67
2023/08/25 06:58:12;;;;;;;3.10;2.40;;;;;;;18.17;100.00;100002.69;4840848;29;20206;-67
2023/08/25 07:01:18;;;;;;;5.03;2.22;;;;;;;18.24;100.00;100003.78;4840970;29;20060;-67
2023/08/25 07:04:21;;;;;;;4.65;2.55;;;;;;;18.24;100.00;100000.28;4841378;29;20048;-67
2023/08/25 07:07:27;;;;;;;3.10;2.28;;;;;;;18.36;100.00;99970.88;4841434;29;20090;-66
2023/08/25 07:10:31;;;;;;;3.80;2.38;;;;;;;18.36;100.00;99978.81;4841755;29;20506;-66
2023/08/25 07:13:34;;;;;;;4.93;2.35;;;;;;;18.32;100.00;99982.75;4841467;29;20052;-67
2023/08/25 07:16:37;;;;;;;5.07;2.50;;;;;;;18.32;100.00;99985.38;4840454;29;20124;-66
2023/08/25 07:19:41;;;;;;;5.05;2.60;;;;;;;18.47;100.00;99992.84;4840959;29;20047;-66
2023/08/25 07:22:45;;;;;;;3.30;2.42;;;;;;;18.61;100.00;99987.09;4841300;29;20101;-66
2023/08/25 07:25:52;;;;;;;3.42;2.72;;;;;;;18.67;100.00;99997.13;4841222;29;20049;-66
2023/08/25 07:28:55;;;;;;;6.43;3.35;;;;;;;18.78;100.00;99999.59;4841092;29;20105;-67
2023/08/25 07:31:58;;;;;;;3.58;2.67;;;;;;;18.88;100.00;100004.03;4841210;29;20060;-67
2023/08/25 07:35:04;;;;;;;3.20;2.45;;;;;;;18.90;100.00;100005.56;4841265;29;20137;-67
2023/08/25 07:38:09;;;;;;;5.30;3.30;;;;;;;18.94;100.00;99991.03;4841011;29;20496;-74
2023/08/25 07:41:15;;;;;;;3.80;2.88;;;;;;;18.96;100.00;99972.34;4839395;29;20072;-74
2023/08/25 07:44:18;;;;;;;3.65;2.83;;;;;;;19.05;100.00;99958.22;4840469;29;20057;-75
2023/08/25 07:47:22;;;;;;;4.07;2.55;;;;;;;19.13;100.00;99960.94;4840894;29;20565;-75
2023/08/25 07:50:29;;;;;;;3.80;3.17;;;;;;;19.25;100.00;99967.72;4840644;29;20113;-75
2023/08/25 07:53:33;;;;;;;6.68;3.50;;;;;;;19.32;100.00;99961.81;4840411;29;20068;-75
2023/08/25 07:56:36;;;;;;;4.28;3.33;;;;;;;19.34;100.00;99957.19;4840662;29;20114;-75
2023/08/25 07:59:39;;;;;;;3.70;2.85;;;;;;;19.39;100.00;99949.63;4840076;29;20659;-75
2023/08/25 08:02:44;;;;;;;6.35;2.75;;;;;;;19.35;100.00;99957.03;4840480;29;20073;-75
2023/08/25 08:05:48;;;;;;;4.25;3.13;;;;;;;19.38;100.00;99962.03;4840709;29;20071;-75
2023/08/25 08:08:51;;;;;;;5.57;3.28;;;;;;;19.41;100.00;99976.81;4840360;29;20519;-75
2023/08/25 08:11:55;;;;;;;4.40;3.50;;;;;;;19.51;100.00;99989.00;4840461;29;20134;-75
2023/08/25 08:14:58;;;;;;;6.03;4.28;;;;;;;19.57;100.00;100000.84;4840627;29;20052;-75
2023/08/25 08:18:01;;;;;;;4.95;4.25;;;;;;;19.65;100.00;100000.94;4840685;29;20436;-75
2023/08/25 08:21:05;;;;;;;5.95;4.32;;;;;;;19.67;100.00;100004.28;4840264;29;20107;-74
2023/08/25 08:24:09;;;;;;;9.38;4.38;;;;;;;19.79;100.00;100001.41;4840900;29;20068;-74
2023/08/25 08:27:15;;;;;;;5.32;3.80;;;;;;;19.85;100.00;100000.81;4841711;29;20109;-74
2023/08/25 08:30:19;;;;;;;5.95;3.80;;;;;;;19.99;100.00;99981.66;4844173;29;20162;-74
2023/08/25 08:33:22;;;;;;;5.05;3.95;;;;;;;20.17;100.00;99998.41;4844040;29;20053;-75
2023/08/25 08:36:26;;;;;;;5.20;4.03;;;;;;;20.26;100.00;99995.78;4843940;29;20192;-74
2023/08/25 08:39:29;;;;;;;5.22;3.85;;;;;;;20.32;100.00;99982.72;4844176;29;20388;-75
2023/08/25 08:42:34;;;;;;;4.50;3.70;;;;;;;20.36;100.00;99970.00;4843863;29;20129;-75
2023/08/25 08:45:39;;;;;;;7.95;4.97;;;;;;;20.39;100.00;99967.84;4843897;29;20128;-75
2023/08/25 08:48:43;;;;;;;5.82;4.28;;;;;;;20.49;100.00;99973.03;4843775;29;20057;-75
2023/08/25 08:51:49;;;;;;;7.68;4.57;;;;;;;20.58;100.00;99965.97;4843924;29;20044;-75
2023/08/25 08:54:53;;;;;;;5.95;3.90;;;;;;;20.59;100.00;99979.09;4842943;29;20049;-76
2023/08/25 08:57:57;;;;;;;5.97;4.38;;;;;;;20.62;100.00;99984.09;4843881;29;20052;-75
2023/08/25 09:01:44;;;;;;;8.90;4.70;;;;;;;20.76;100.00;99989.81;4843847;29;20082;-75
2023/08/25 09:04:53;;;;;;;5.63;4.30;;;;;;;20.87;100.00;100008.16;4842890;29;20076;-75
2023/08/25 09:08:05;;;;;;;6.90;3.63;;;;;;;20.98;100.00;100007.00;4843906;29;20476;-75
2023/08/25 09:11:08;;;;;;;4.85;3.50;;;;;;;21.00;99.21;100003.22;4843386;29;20126;-75
2023/08/25 09:14:13;;;;;;;4.75;3.70;;;;;;;21.08;99.11;99995.25;4843028;29;20481;-75
2023/08/25 09:17:16;;;;;;;7.15;3.78;;;;;;;21.10;98.93;100003.91;4842649;29;20098;-75
2023/08/25 09:20:22;;;;;;;6.35;3.65;;;;;;;21.16;99.22;99996.28;4843410;29;20083;-75
2023/08/25 09:23:26;;;;;;;4.53;3.53;;;;;;;21.19;99.38;99996.78;4843732;29;20041;-76
2023/08/25 09:26:36;;;;;;;4.80;3.72;;;;;;;21.23;98.62;99974.19;4843155;29;20076;-74
2023/08/25 09:29:41;;;;;;;3.67;3.15;;;;;;;21.24;98.82;99977.69;4842353;29;20101;-75
2023/08/25 09:32:45;;;;;;;5.60;4.13;;;;;;;21.30;98.49;99958.44;4842380;29;20049;-75
2023/08/25 09:35:48;;;;;;;5.97;3.00;;;;;;;21.32;99.50;99949.28;4843264;29;20044;-75
2023/08/25 09:38:52;;;;;;;5.50;2.80;;;;;;;21.36;100.00;99933.88;4841858;29;20056;-74
2023/08/25 09:41:55;;;;;;;3.92;2.80;;;;;;;21.39;100.00;99922.09;4843036;29;20053;-75
2023/08/25 09:44:59;;;;;;;4.68;2.97;;;;;;;21.41;100.00;99904.97;4843128;29;20137;-75
2023/08/25 09:48:16;;;;;;;5.47;2.75;;;;;;;21.50;100.00;99903.94;4842899;29;20056;-75
2023/08/25 09:51:21;;;;;;;6.03;2.67;;;;;;;21.63;100.00;99899.97;4842856;29;20116;-75
2023/08/25 09:54:25;;;;;;;6.05;2.90;;;;;;;21.80;100.00;99883.00;4831151;29;20049;-75
2023/08/25 09:57:30;;;;;;;6.68;2.75;;;;;;;21.99;99.46;99877.31;4842745;29;20061;-75
2023/08/25 10:00:35;;;;;;;6.40;2.70;;;;;;;22.29;93.41;99872.25;4842491;29;20057;-75
2023/08/25 10:03:39;;;;;;;4.47;2.53;;;;;;;22.64;89.05;99857.63;4842851;29;20065;-75
2023/08/25 10:06:42;;;;;;;6.45;2.55;;;;;;;22.81;87.72;99852.19;4842824;29;20067;-75
2023/08/25 10:09:45;;;;;;;5.72;2.15;;;;;;;22.96;84.72;99840.63;4842665;29;20468;-75
2023/08/25 10:12:49;;;;;;;6.95;2.58;;;;;;;23.14;81.91;99835.03;4842405;29;20049;-75
2023/08/25 10:15:53;;;;;;;3.97;2.15;;;;;;;23.25;82.38;99846.28;4842346;29;20088;-74
2023/08/25 10:19:01;;;;;;;6.10;2.65;;;;;;;23.50;76.82;99852.22;4842524;29;20507;-74
2023/08/25 10:22:07;;;;;;;4.35;2.08;;;;;;;23.54;76.98;99846.34;4842572;29;20521;-74
2023/08/25 10:25:13;;;;;;;6.13;2.10;;;;;;;23.75;75.14;99837.69;4841735;29;20044;-74
2023/08/25 10:28:17;;;;;;;3.60;1.92;;;;;;;23.84;75.10;99831.25;4842225;29;20044;-75
2023/08/25 10:31:20;;;;;;;6.40;1.95;;;;;;;24.14;72.35;99842.75;4842723;29;20057;-75
2023/08/25 10:34:46;;;;;;;5.57;2.47;;;;;;;24.25;71.60;99821.91;4842535;29;20185;-76
2023/08/25 10:37:52;;;;;;;6.75;2.15;;;;;;;24.33;70.97;99840.53;4841927;29;20101;-75
2023/08/25 10:40:56;;;;;;;11.55;2.20;;;;;;;24.32;71.65;99834.38;4842202;29;20564;-75
2023/08/25 10:43:59;;;;;;;5.57;2.40;;;;;;;24.51;70.37;99826.81;4841929;29;20045;-75
2023/08/25 10:47:03;;;;;;;6.15;2.58;;;;;;;24.73;69.45;99831.19;4843013;29;20045;-75
2023/08/25 10:50:07;;;;;;;5.18;2.20;;;;;;;24.73;68.24;99825.84;4841920;29;20434;-75
2023/08/25 10:53:36;;;;;;;5.68;2.40;;;;;;;24.74;69.34;99811.44;4841968;29;20124;-75
2023/08/25 10:56:39;;;;;;;6.05;2.30;;;;;;;24.95;67.94;99812.47;4841791;29;20117;-76
2023/08/25 10:59:48;;;;;;;4.93;1.83;;;;;;;25.03;67.77;99809.66;4841260;29;20065;-76
2023/08/25 11:02:51;;;;;;;6.53;2.65;;;;;;;25.11;67.58;99796.19;4841683;29;20052;-76
2023/08/25 11:05:55;;;;;;;3.15;1.63;;;;;;;25.32;65.90;99823.94;4841597;29;20098;-76
2023/08/25 11:08:58;;;;;;;6.63;2.10;;;;;;;25.49;64.96;99825.31;4841528;29;20530;-75
2023/08/25 11:12:06;;;;;;;5.47;2.03;;;;;;;25.59;64.84;99830.34;4841432;29;20073;-75
2023/08/25 11:15:10;;;;;;;5.60;1.70;;;;;;;25.53;63.98;99840.00;4841625;29;20060;-76
2023/08/25 11:18:14;;;;;;;5.93;1.90;;;;;;;25.66;63.33;99845.44;4841423;29;20084;-69
2023/08/25 11:21:21;;;;;;;7.63;2.20;;;;;;;25.72;63.25;99858.03;4841505;29;20093;-69
2023/08/25 11:24:25;;;;;;;3.03;1.58;;;;;;;25.47;63.80;99859.50;4841479;29;20066;-67
2023/08/25 11:27:28;;;;;;;3.42;1.80;;;;;;;25.32;64.23;99850.72;4841057;29;20099;-66
2023/08/25 11:30:37;;;;;;;7.13;2.10;;;;;;;25.48;63.54;99855.78;4823345;29;20053;-74
2023/08/25 11:33:40;;;;;;;8.00;2.38;;;;;;;25.27;64.06;99843.25;4822237;29;20111;-74
2023/08/25 11:36:44;;;;;;;6.75;2.75;;;;;;;25.33;64.65;99850.50;4823007;29;20065;-73
2023/08/25 11:39:47;;;;;;;4.50;1.98;;;;;;;25.42;64.31;99843.19;4822827;29;20049;-73
2023/08/25 11:42:51;;;;;;;3.75;2.10;;;;;;;25.40;64.64;99837.19;4823139;29;20053;-74
2023/08/25 11:45:55;;;;;;;4.93;2.03;;;;;;;25.26;65.80;99846.94;4822829;29;20469;-74
2023/08/25 11:48:59;;;;;;;5.93;2.42;;;;;;;25.01;66.37;99849.97;4822627;29;20110;-76
2023/08/25 11:52:05;;;;;;;5.18;2.67;;;;;;;24.81;66.99;99841.75;4822845;29;20048;-75
2023/08/25 11:55:14;;;;;;;4.38;1.92;;;;;;;24.71;67.83;99843.06;4822931;29;20100;-77
2023/08/25 11:58:18;;;;;;;4.22;2.05;;;;;;;24.68;67.99;99828.25;4822980;29;20198;-76
2023/08/25 12:01:21;;;;;;;5.78;2.55;;;;;;;24.57;68.64;99847.44;4822140;29;20065;-79
2023/08/25 12:04:26;;;;;;;6.10;2.40;;;;;;;24.49;69.84;99834.19;4822829;29;20159;-76
2023/08/25 12:07:31;;;;;;;5.35;2.17;;;;;;;24.50;70.70;99842.00;4822748;29;20045;-74
2023/08/25 12:10:35;;;;;;;3.88;2.05;;;;;;;24.47;73.21;99853.06;4822945;29;20089;-77
2023/08/25 12:13:44;;;;;;;7.20;2.65;;;;;;;24.45;74.52;99860.47;4821871;29;20054;-78
2023/08/25 12:16:47;;;;;;;6.10;3.08;;;;;;;24.31;73.14;99875.47;4822769;29;20155;-76
2023/08/25 12:19:51;;;;;;;6.47;3.22;;;;;;;24.30;73.09;99872.97;4822867;29;20057;-75
2023/08/25 12:23:00;;;;;;;7.60;2.80;;;;;;;24.32;72.96;99882.47;4822421;29;20071;-75
2023/08/25 12:26:04;;;;;;;5.25;3.00;;;;;;;24.28;73.91;99889.19;4832223;29;20057;-74
2023/08/25 12:29:08;;;;;;;6.47;3.03;;;;;;;24.28;73.61;99901.69;4822631;29;20115;-77
2023/08/25 12:32:11;;;;;;;6.57;3.90;;;;;;;24.20;74.94;99905.28;4822970;29;20902;-81
2023/08/25 12:35:15;;;;;;;12.57;4.03;;;;;;;24.11;75.85;99909.06;4822461;29;20092;-76
2023/08/25 12:38:19;;;;;;;7.43;3.15;;;;;;;23.96;77.79;99897.53;4822317;29;20531;-76
2023/08/25 12:41:22;;;;;;;9.55;3.78;;;;;;;23.90;78.40;99886.59;4822482;29;20053;-76
2023/08/25 12:44:25;;;;;;;11.00;3.10;;;;;;;23.80;79.25;99894.03;4822102;29;20054;-75
2023/08/25 12:47:38;;;;;;;6.35;3.45;;;;;;;23.75;80.51;99896.41;4822381;29;20134;-74
2023/08/25 12:50:42;;;;;;;12.55;4.20;;;;;;;23.56;82.71;99900.38;4822424;29;20394;-75
2023/08/25 12:53:48;;;;;;;7.05;3.75;;;;;;;23.55;83.29;99890.72;4822377;29;20049;-75
2023/08/25 12:56:59;;;;;;;10.60;3.97;;;;;;;23.60;83.79;99887.50;4822693;29;20077;-74
2023/08/25 13:00:04;;;;;;;10.60;4.47;;;;;;;23.62;83.91;99886.31;4822428;29;20520;-78
2023/08/25 13:03:09;;;;;;;5.18;3.28;;;;;;;23.60;85.33;99882.97;4827042;29;20094;-77
2023/08/25 13:06:13;;;;;;;9.07;7.15;;;;;;;23.65;84.43;99885.13;4831861;29;20119;-77
2023/08/25 13:09:17;;;;;;;6.72;4.82;;;;;;;23.74;84.46;99884.09;4829196;29;20500;-76
2023/08/25 13:12:21;;;;;;;10.18;4.10;;;;;;;23.70;84.89;99880.09;4829476;29;20465;-76
2023/08/25 13:15:26;;;;;;;7.68;4.85;;;;;;;23.64;84.79;99873.63;4836656;29;20057;-75
2023/08/25 13:18:29;;;;;;;4.82;3.28;;;;;;;23.59;85.03;99877.84;4836215;29;20511;-76
2023/08/25 13:21:32;;;;;;;4.45;3.40;;;;;;;23.61;85.45;99878.47;4844105;29;20132;-78
2023/08/25 13:24:36;;;;;;;6.78;3.50;;;;;;;23.57;85.95;99879.84;4843625;29;20425;-76
2023/08/25 13:27:40;;;;;;;7.65;4.35;;;;;;;23.57;86.09;99877.19;4843619;29;20072;-76
2023/08/25 13:30:43;;;;;;;12.55;3.78;;;;;;;23.60;86.05;99874.97;4843392;29;20071;-77
2023/08/25 13:33:46;;;;;;;5.57;3.67;;;;;;;23.63;86.52;99876.47;4843395;29;20141;-77
2023/08/25 13:36:50;;;;;;;9.15;3.83;;;;;;;23.63;86.44;99865.78;4843350;29;20076;-76
2023/08/25 13:39:54;;;;;;;5.95;4.20;;;;;;;23.64;86.54;99856.75;4843322;29;20053;-75
2023/08/25 13:43:01;;;;;;;7.25;3.60;;;;;;;23.66;86.79;99862.75;4843479;29;20052;-74
2023/08/25 13:46:04;;;;;;;8.35;4.00;;;;;;;23.68;86.50;99868.75;4843053;29;20052;-75
2023/08/25 13:49:07;;;;;;;4.57;3.60;;;;;;;23.68;86.51;99866.09;4843170;29;20052;-75
2023/08/25 13:52:10;;;;;;;7.00;4.32;;;;;;;23.66;86.10;99860.09;4843018;29;20072;-75
2023/08/25 13:55:14;;;;;;;6.05;3.67;;;;;;;23.70;86.53;99869.41;4843067;29;20064;-75
2023/08/25 13:58:18;;;;;;;8.77;4.07;;;;;;;23.80;86.05;99863.81;4843277;29;20048;-74
2023/08/25 14:01:26;;;;;;;7.07;4.00;;;;;;;23.80;85.58;99877.16;4836212;29;20040;-74
2023/08/25 14:04:29;;;;;;;11.48;4.10;;;;;;;23.76;86.31;99882.03;4826613;29;20106;-74
2023/08/25 14:07:32;;;;;;;6.47;3.85;;;;;;;23.82;86.90;99875.97;4831470;29;20075;-74
2023/08/25 14:10:35;;;;;;;10.20;4.55;;;;;;;24.09;86.19;99873.69;4833732;29;20078;-74
2023/08/25 14:13:40;;;;;;;5.55;3.92;;;;;;;24.68;81.73;99881.69;4830398;29;20090;-74
2023/08/25 14:16:43;;;;;;;7.78;4.72;;;;;;;24.36;83.00;99882.91;4833903;29;20102;-74
2023/08/25 14:19:47;;;;;;;5.90;3.88;;;;;;;24.18;84.26;99887.78;4833419;29;20106;-74
2023/08/25 14:22:52;;;;;;;8.27;3.80;;;;;;;24.02;84.61;99881.59;4839021;29;20048;-73
2023/08/25 14:25:55;;;;;;;7.68;4.15;;;;;;;23.93;84.28;99871.19;4842231;29;20097;-73